sensor_id;sensor_type;location;lat;lon;timestamp;P1;durP1;ratioP1;P2;durP2;ratioP2
43793;SDS011;29414;44.798;20.366;2023-05-02T00:02:30;2.76;;;1.80;;
43793;SDS011;29414;44.798;20.366;2023-05-02T00:06:31;7.72;;;1.77;;
43793;SDS011;29414;44.798;20.366;2023-05-02T00:10:32;2.50;;;1.88;;
43793;SDS011;29414;44.798;20.366;2023-05-02T00:14:32;3.97;;;1.98;;
43793;SDS011;29414;44.798;20.366;2023-05-02T00:18:36;1.90;;;1.42;;
43793;SDS011;29414;44.798;20.366;2023-05-02T00:22:36;4.13;;;2.22;;
43793;SDS011;29414;44.798;20.366;2023-05-02T00:26:37;2.47;;;1.88;;
43793;SDS011;29414;44.798;20.366;2023-05-02T00:30:41;2.33;;;2.08;;
43793;SDS011;29414;44.798;20.366;2023-05-02T00:34:41;1.75;;;1.65;;
43793;SDS011;29414;44.798;20.366;2023-05-02T00:38:41;2.88;;;2.00;;
43793;SDS011;29414;44.798;20.366;2023-05-02T00:42:41;2.40;;;2.20;;
43793;SDS011;29414;44.798;20.366;2023-05-02T00:46:42;6.13;;;2.33;;
43793;SDS011;29414;44.798;20.366;2023-05-02T00:50:42;1.95;;;1.63;;
43793;SDS011;29414;44.798;20.366;2023-05-02T00:54:42;5.88;;;1.67;;
43793;SDS011;29414;44.798;20.366;2023-05-02T00:58:43;12.27;;;2.63;;
43793;SDS011;29414;44.798;20.366;2023-05-02T01:02:49;2.83;;;2.00;;
43793;SDS011;29414;44.798;20.366;2023-05-02T01:15:14;2.97;;;2.08;;
43793;SDS011;29414;44.798;20.366;2023-05-02T01:19:24;3.95;;;1.90;;
43793;SDS011;29414;44.798;20.366;2023-05-02T01:24:11;1.98;;;1.52;;
43793;SDS011;29414;44.798;20.366;2023-05-02T01:31:47;2.90;;;1.83;;
43793;SDS011;29414;44.798;20.366;2023-05-02T01:35:49;2.75;;;2.10;;
43793;SDS011;29414;44.798;20.366;2023-05-02T01:39:50;3.13;;;1.77;;
43793;SDS011;29414;44.798;20.366;2023-05-02T01:43:51;3.22;;;2.22;;
43793;SDS011;29414;44.798;20.366;2023-05-02T01:47:53;3.63;;;1.90;;
43793;SDS011;29414;44.798;20.366;2023-05-02T01:51:53;3.30;;;1.83;;
43793;SDS011;29414;44.798;20.366;2023-05-02T01:55:54;2.97;;;2.20;;
43793;SDS011;29414;44.798;20.366;2023-05-02T01:59:56;2.75;;;2.55;;
43793;SDS011;29414;44.798;20.366;2023-05-02T02:03:57;1.75;;;1.60;;
43793;SDS011;29414;44.798;20.366;2023-05-02T02:07:59;2.30;;;2.08;;
43793;SDS011;29414;44.798;20.366;2023-05-02T02:12:04;5.05;;;2.08;;
43793;SDS011;29414;44.798;20.366;2023-05-02T02:16:05;2.17;;;1.98;;
43793;SDS011;29414;44.798;20.366;2023-05-02T02:20:09;3.75;;;2.17;;
43793;SDS011;29414;44.798;20.366;2023-05-02T02:24:13;3.08;;;2.22;;
43793;SDS011;29414;44.798;20.366;2023-05-02T02:28:15;3.08;;;2.47;;
43793;SDS011;29414;44.798;20.366;2023-05-02T02:32:15;2.20;;;1.67;;
43793;SDS011;29414;44.798;20.366;2023-05-02T02:36:19;6.22;;;1.86;;
43793;SDS011;29414;44.798;20.366;2023-05-02T02:40:22;4.10;;;2.10;;
43793;SDS011;29414;44.798;20.366;2023-05-02T02:48:36;5.34;;;1.52;;
43793;SDS011;29414;44.798;20.366;2023-05-02T02:56:44;1.92;;;1.65;;
43793;SDS011;29414;44.798;20.366;2023-05-02T03:00:45;4.03;;;2.05;;
43793;SDS011;29414;44.798;20.366;2023-05-02T03:04:46;2.38;;;1.70;;
43793;SDS011;29414;44.798;20.366;2023-05-02T03:08:48;3.78;;;1.70;;
43793;SDS011;29414;44.798;20.366;2023-05-02T03:12:49;2.92;;;1.80;;
43793;SDS011;29414;44.798;20.366;2023-05-02T03:16:49;3.80;;;2.20;;
43793;SDS011;29414;44.798;20.366;2023-05-02T03:20:49;6.47;;;2.10;;
43793;SDS011;29414;44.798;20.366;2023-05-02T03:24:50;1.70;;;1.60;;
43793;SDS011;29414;44.798;20.366;2023-05-02T03:28:51;3.95;;;1.40;;
43793;SDS011;29414;44.798;20.366;2023-05-02T03:32:51;2.65;;;1.88;;
43793;SDS011;29414;44.798;20.366;2023-05-02T03:36:51;3.92;;;1.67;;
43793;SDS011;29414;44.798;20.366;2023-05-02T03:40:52;2.88;;;2.00;;
43793;SDS011;29414;44.798;20.366;2023-05-02T03:44:55;2.85;;;1.55;;
43793;SDS011;29414;44.798;20.366;2023-05-02T03:48:59;2.90;;;1.58;;
43793;SDS011;29414;44.798;20.366;2023-05-02T03:52:59;3.35;;;1.98;;
43793;SDS011;29414;44.798;20.366;2023-05-02T03:56:59;3.08;;;1.90;;
43793;SDS011;29414;44.798;20.366;2023-05-02T04:01:00;1.80;;;1.70;;
43793;SDS011;29414;44.798;20.366;2023-05-02T04:05:00;3.22;;;1.75;;
43793;SDS011;29414;44.798;20.366;2023-05-02T04:09:01;3.20;;;2.50;;
43793;SDS011;29414;44.798;20.366;2023-05-02T04:13:02;2.22;;;2.03;;
43793;SDS011;29414;44.798;20.366;2023-05-02T04:17:02;3.28;;;2.00;;
43793;SDS011;29414;44.798;20.366;2023-05-02T04:21:03;9.30;;;2.42;;
43793;SDS011;29414;44.798;20.366;2023-05-02T04:25:03;2.70;;;1.70;;
43793;SDS011;29414;44.798;20.366;2023-05-02T04:29:03;6.38;;;1.60;;
43793;SDS011;29414;44.798;20.366;2023-05-02T04:33:04;2.70;;;2.17;;
43793;SDS011;29414;44.798;20.366;2023-05-02T04:37:04;3.20;;;1.66;;
43793;SDS011;29414;44.798;20.366;2023-05-02T04:41:04;4.28;;;2.15;;
43793;SDS011;29414;44.798;20.366;2023-05-02T04:45:05;1.95;;;1.75;;
43793;SDS011;29414;44.798;20.366;2023-05-02T04:49:05;4.57;;;1.42;;
43793;SDS011;29414;44.798;20.366;2023-05-02T04:53:06;5.38;;;1.65;;
43793;SDS011;29414;44.798;20.366;2023-05-02T04:57:06;1.67;;;1.58;;
43793;SDS011;29414;44.798;20.366;2023-05-02T05:01:07;4.15;;;1.95;;
43793;SDS011;29414;44.798;20.366;2023-05-02T05:05:07;4.93;;;1.70;;
43793;SDS011;29414;44.798;20.366;2023-05-02T05:09:08;1.75;;;1.50;;
43793;SDS011;29414;44.798;20.366;2023-05-02T05:13:08;2.75;;;1.88;;
43793;SDS011;29414;44.798;20.366;2023-05-02T05:17:08;4.03;;;1.75;;
43793;SDS011;29414;44.798;20.366;2023-05-02T05:21:09;3.46;;;1.88;;
43793;SDS011;29414;44.798;20.366;2023-05-02T05:25:09;4.03;;;1.80;;
43793;SDS011;29414;44.798;20.366;2023-05-02T05:29:10;2.97;;;1.73;;
43793;SDS011;29414;44.798;20.366;2023-05-02T05:33:10;3.45;;;1.95;;
43793;SDS011;29414;44.798;20.366;2023-05-02T05:37:10;3.63;;;1.90;;
43793;SDS011;29414;44.798;20.366;2023-05-02T05:41:11;2.17;;;1.63;;
43793;SDS011;29414;44.798;20.366;2023-05-02T05:45:11;9.45;;;2.17;;
43793;SDS011;29414;44.798;20.366;2023-05-02T05:49:12;1.48;;;1.38;;
43793;SDS011;29414;44.798;20.366;2023-05-02T05:53:12;5.32;;;2.03;;
43793;SDS011;29414;44.798;20.366;2023-05-02T05:57:13;5.85;;;1.85;;
43793;SDS011;29414;44.798;20.366;2023-05-02T06:01:13;2.75;;;1.50;;
43793;SDS011;29414;44.798;20.366;2023-05-02T06:05:14;8.85;;;1.63;;
43793;SDS011;29414;44.798;20.366;2023-05-02T06:09:14;3.25;;;1.92;;
43793;SDS011;29414;44.798;20.366;2023-05-02T06:13:15;3.85;;;1.55;;
43793;SDS011;29414;44.798;20.366;2023-05-02T06:17:15;3.58;;;1.70;;
43793;SDS011;29414;44.798;20.366;2023-05-02T06:21:16;2.80;;;1.70;;
43793;SDS011;29414;44.798;20.366;2023-05-02T06:25:16;2.20;;;1.60;;
43793;SDS011;29414;44.798;20.366;2023-05-02T06:29:16;2.38;;;1.65;;
43793;SDS011;29414;44.798;20.366;2023-05-02T06:33:16;6.07;;;2.35;;
43793;SDS011;29414;44.798;20.366;2023-05-02T06:37:17;3.90;;;1.55;;
43793;SDS011;29414;44.798;20.366;2023-05-02T06:41:17;6.88;;;1.82;;
43793;SDS011;29414;44.798;20.366;2023-05-02T06:45:19;3.65;;;1.67;;
43793;SDS011;29414;44.798;20.366;2023-05-02T06:49:20;2.13;;;1.35;;
43793;SDS011;29414;44.798;20.366;2023-05-02T06:53:20;6.22;;;1.55;;
43793;SDS011;29414;44.798;20.366;2023-05-02T06:57:21;6.55;;;1.85;;
43793;SDS011;29414;44.798;20.366;2023-05-02T07:01:21;6.30;;;1.77;;
43793;SDS011;29414;44.798;20.366;2023-05-02T07:05:21;1.67;;;1.23;;
43793;SDS011;29414;44.798;20.366;2023-05-02T07:09:21;3.03;;;1.30;;
43793;SDS011;29414;44.798;20.366;2023-05-02T07:13:22;3.22;;;1.30;;
43793;SDS011;29414;44.798;20.366;2023-05-02T07:17:22;2.85;;;1.33;;
43793;SDS011;29414;44.798;20.366;2023-05-02T07:21:24;1.75;;;1.10;;
43793;SDS011;29414;44.798;20.366;2023-05-02T07:25:24;2.22;;;1.30;;
43793;SDS011;29414;44.798;20.366;2023-05-02T07:29:24;7.18;;;1.45;;
43793;SDS011;29414;44.798;20.366;2023-05-02T07:33:28;4.70;;;1.58;;
43793;SDS011;29414;44.798;20.366;2023-05-02T07:37:31;5.78;;;1.83;;
43793;SDS011;29414;44.798;20.366;2023-05-02T07:41:32;21.83;;;2.92;;
43793;SDS011;29414;44.798;20.366;2023-05-02T07:45:32;8.13;;;1.60;;
43793;SDS011;29414;44.798;20.366;2023-05-02T07:49:33;5.10;;;1.23;;
43793;SDS011;29414;44.798;20.366;2023-05-02T07:53:33;8.35;;;1.75;;
43793;SDS011;29414;44.798;20.366;2023-05-02T07:57:33;36.95;;;3.05;;
43793;SDS011;29414;44.798;20.366;2023-05-02T08:01:33;13.55;;;1.60;;
43793;SDS011;29414;44.798;20.366;2023-05-02T08:05:34;6.03;;;1.27;;
43793;SDS011;29414;44.798;20.366;2023-05-02T08:09:34;7.18;;;1.65;;
43793;SDS011;29414;44.798;20.366;2023-05-02T08:13:34;16.00;;;2.22;;
43793;SDS011;29414;44.798;20.366;2023-05-02T08:17:35;6.53;;;0.80;;
43793;SDS011;29414;44.798;20.366;2023-05-02T08:21:35;3.26;;;0.68;;
43793;SDS011;29414;44.798;20.366;2023-05-02T08:25:35;2.58;;;1.33;;
43793;SDS011;29414;44.798;20.366;2023-05-02T08:29:36;7.05;;;1.88;;
43793;SDS011;29414;44.798;20.366;2023-05-02T08:33:36;10.50;;;1.52;;
43793;SDS011;29414;44.798;20.366;2023-05-02T08:37:36;4.90;;;1.24;;
43793;SDS011;29414;44.798;20.366;2023-05-02T08:41:38;5.20;;;0.90;;
43793;SDS011;29414;44.798;20.366;2023-05-02T08:45:39;1.63;;;0.93;;
43793;SDS011;29414;44.798;20.366;2023-05-02T08:49:39;3.13;;;1.10;;
43793;SDS011;29414;44.798;20.366;2023-05-02T08:53:40;2.80;;;1.42;;
43793;SDS011;29414;44.798;20.366;2023-05-02T08:57:43;1.92;;;1.05;;
43793;SDS011;29414;44.798;20.366;2023-05-02T09:01:43;11.15;;;1.50;;
43793;SDS011;29414;44.798;20.366;2023-05-02T09:05:51;2.97;;;1.10;;
43793;SDS011;29414;44.798;20.366;2023-05-02T09:09:51;3.65;;;1.02;;
43793;SDS011;29414;44.798;20.366;2023-05-02T09:13:52;3.58;;;1.50;;
43793;SDS011;29414;44.798;20.366;2023-05-02T09:17:52;4.93;;;1.35;;
43793;SDS011;29414;44.798;20.366;2023-05-02T09:21:58;5.65;;;1.30;;
43793;SDS011;29414;44.798;20.366;2023-05-02T09:25:59;6.57;;;1.23;;
43793;SDS011;29414;44.798;20.366;2023-05-02T09:34:19;2.67;;;1.17;;
43793;SDS011;29414;44.798;20.366;2023-05-02T09:38:19;7.85;;;0.90;;
43793;SDS011;29414;44.798;20.366;2023-05-02T09:42:29;4.57;;;0.55;;
43793;SDS011;29414;44.798;20.366;2023-05-02T09:46:31;3.00;;;1.13;;
43793;SDS011;29414;44.798;20.366;2023-05-02T09:50:38;8.88;;;1.00;;
43793;SDS011;29414;44.798;20.366;2023-05-02T09:54:38;7.10;;;1.33;;
43793;SDS011;29414;44.798;20.366;2023-05-02T09:58:39;7.43;;;1.67;;
43793;SDS011;29414;44.798;20.366;2023-05-02T10:02:39;1.94;;;1.18;;
43793;SDS011;29414;44.798;20.366;2023-05-02T10:06:41;2.17;;;0.93;;
43793;SDS011;29414;44.798;20.366;2023-05-02T10:10:44;1.75;;;0.85;;
43793;SDS011;29414;44.798;20.366;2023-05-02T10:14:48;3.72;;;1.40;;
43793;SDS011;29414;44.798;20.366;2023-05-02T10:19:06;2.55;;;0.80;;
43793;SDS011;29414;44.798;20.366;2023-05-02T10:23:08;4.20;;;0.80;;
43793;SDS011;29414;44.798;20.366;2023-05-02T10:27:09;4.68;;;1.00;;
43793;SDS011;29414;44.798;20.366;2023-05-02T10:31:09;1.45;;;0.82;;
43793;SDS011;29414;44.798;20.366;2023-05-02T10:35:12;5.45;;;1.50;;
43793;SDS011;29414;44.798;20.366;2023-05-02T10:39:12;4.45;;;1.30;;
43793;SDS011;29414;44.798;20.366;2023-05-02T10:43:14;1.83;;;0.82;;
43793;SDS011;29414;44.798;20.366;2023-05-02T10:47:24;3.05;;;0.98;;
43793;SDS011;29414;44.798;20.366;2023-05-02T10:51:26;3.22;;;1.00;;
43793;SDS011;29414;44.798;20.366;2023-05-02T10:55:26;3.17;;;0.90;;
43793;SDS011;29414;44.798;20.366;2023-05-02T10:59:28;2.45;;;0.90;;
43793;SDS011;29414;44.798;20.366;2023-05-02T11:07:48;1.45;;;0.90;;
43793;SDS011;29414;44.798;20.366;2023-05-02T11:11:49;3.72;;;0.82;;
43793;SDS011;29414;44.798;20.366;2023-05-02T11:36:49;3.10;;;1.10;;
43793;SDS011;29414;44.798;20.366;2023-05-02T11:40:50;5.53;;;1.20;;
43793;SDS011;29414;44.798;20.366;2023-05-02T11:44:54;2.55;;;0.93;;
43793;SDS011;29414;44.798;20.366;2023-05-02T11:48:55;3.75;;;1.45;;
43793;SDS011;29414;44.798;20.366;2023-05-02T11:52:56;2.72;;;0.75;;
43793;SDS011;29414;44.798;20.366;2023-05-02T11:56:56;3.58;;;1.05;;
43793;SDS011;29414;44.798;20.366;2023-05-02T12:01:10;1.45;;;0.93;;
43793;SDS011;29414;44.798;20.366;2023-05-02T12:05:12;3.28;;;1.10;;
43793;SDS011;29414;44.798;20.366;2023-05-02T12:09:13;11.43;;;1.67;;
43793;SDS011;29414;44.798;20.366;2023-05-02T12:13:16;3.08;;;0.77;;
43793;SDS011;29414;44.798;20.366;2023-05-02T12:17:16;1.90;;;0.98;;
43793;SDS011;29414;44.798;20.366;2023-05-02T12:21:19;1.63;;;1.17;;
43793;SDS011;29414;44.798;20.366;2023-05-02T12:25:19;1.27;;;0.80;;
43793;SDS011;29414;44.798;20.366;2023-05-02T12:29:20;6.40;;;1.20;;
43793;SDS011;29414;44.798;20.366;2023-05-02T12:33:20;22.42;;;2.53;;
43793;SDS011;29414;44.798;20.366;2023-05-02T12:37:21;2.15;;;1.13;;
43793;SDS011;29414;44.798;20.366;2023-05-02T12:45:32;3.10;;;1.05;;
43793;SDS011;29414;44.798;20.366;2023-05-02T12:49:55;0.88;;;0.88;;
43793;SDS011;29414;44.798;20.366;2023-05-02T12:53:56;2.83;;;1.00;;
43793;SDS011;29414;44.798;20.366;2023-05-02T13:01:59;3.58;;;1.15;;
43793;SDS011;29414;44.798;20.366;2023-05-02T13:06:00;3.70;;;1.33;;
43793;SDS011;29414;44.798;20.366;2023-05-02T13:10:00;1.30;;;1.02;;
43793;SDS011;29414;44.798;20.366;2023-05-02T13:14:00;7.85;;;1.92;;
43793;SDS011;29414;44.798;20.366;2023-05-02T13:18:04;5.97;;;1.05;;
43793;SDS011;29414;44.798;20.366;2023-05-02T13:22:04;3.92;;;0.98;;
43793;SDS011;29414;44.798;20.366;2023-05-02T13:26:04;2.25;;;0.75;;
43793;SDS011;29414;44.798;20.366;2023-05-02T13:30:05;9.98;;;0.80;;
43793;SDS011;29414;44.798;20.366;2023-05-02T13:34:05;9.00;;;1.60;;
43793;SDS011;29414;44.798;20.366;2023-05-02T13:38:06;3.30;;;0.90;;
43793;SDS011;29414;44.798;20.366;2023-05-02T13:42:06;2.06;;;1.28;;
43793;SDS011;29414;44.798;20.366;2023-05-02T13:46:06;4.53;;;0.88;;
43793;SDS011;29414;44.798;20.366;2023-05-02T13:50:07;1.50;;;0.86;;
43793;SDS011;29414;44.798;20.366;2023-05-02T13:54:07;5.80;;;0.93;;
43793;SDS011;29414;44.798;20.366;2023-05-02T13:58:07;5.18;;;1.10;;
43793;SDS011;29414;44.798;20.366;2023-05-02T14:02:08;5.63;;;1.20;;
43793;SDS011;29414;44.798;20.366;2023-05-02T14:06:08;6.38;;;1.40;;
43793;SDS011;29414;44.798;20.366;2023-05-02T14:10:08;6.53;;;1.10;;
43793;SDS011;29414;44.798;20.366;2023-05-02T14:14:09;1.88;;;1.23;;
43793;SDS011;29414;44.798;20.366;2023-05-02T14:18:14;2.17;;;1.00;;
43793;SDS011;29414;44.798;20.366;2023-05-02T14:22:15;8.47;;;1.20;;
43793;SDS011;29414;44.798;20.366;2023-05-02T14:26:18;3.78;;;1.23;;
43793;SDS011;29414;44.798;20.366;2023-05-02T14:30:19;2.90;;;0.98;;
43793;SDS011;29414;44.798;20.366;2023-05-02T14:34:19;2.17;;;0.80;;
43793;SDS011;29414;44.798;20.366;2023-05-02T14:38:20;3.97;;;0.82;;
43793;SDS011;29414;44.798;20.366;2023-05-02T14:42:21;2.35;;;1.05;;
43793;SDS011;29414;44.798;20.366;2023-05-02T14:46:24;2.85;;;0.90;;
43793;SDS011;29414;44.798;20.366;2023-05-02T14:50:24;0.90;;;0.77;;
43793;SDS011;29414;44.798;20.366;2023-05-02T14:54:26;3.22;;;0.82;;
43793;SDS011;29414;44.798;20.366;2023-05-02T14:58:27;3.25;;;1.13;;
43793;SDS011;29414;44.798;20.366;2023-05-02T15:02:27;9.60;;;0.93;;
43793;SDS011;29414;44.798;20.366;2023-05-02T15:06:28;2.76;;;0.80;;
43793;SDS011;29414;44.798;20.366;2023-05-02T15:10:30;1.52;;;0.73;;
43793;SDS011;29414;44.798;20.366;2023-05-02T15:14:33;2.03;;;0.80;;
43793;SDS011;29414;44.798;20.366;2023-05-02T15:18:33;8.25;;;1.48;;
43793;SDS011;29414;44.798;20.366;2023-05-02T15:22:34;1.55;;;0.75;;
43793;SDS011;29414;44.798;20.366;2023-05-02T15:26:34;4.63;;;0.90;;
43793;SDS011;29414;44.798;20.366;2023-05-02T15:30:37;2.88;;;0.85;;
43793;SDS011;29414;44.798;20.366;2023-05-02T15:34:38;2.70;;;0.98;;
43793;SDS011;29414;44.798;20.366;2023-05-02T15:38:39;16.15;;;1.95;;
43793;SDS011;29414;44.798;20.366;2023-05-02T15:42:41;2.25;;;0.90;;
43793;SDS011;29414;44.798;20.366;2023-05-02T15:46:41;2.35;;;0.82;;
43793;SDS011;29414;44.798;20.366;2023-05-02T15:50:45;5.22;;;1.10;;
43793;SDS011;29414;44.798;20.366;2023-05-02T15:54:49;3.28;;;1.50;;
43793;SDS011;29414;44.798;20.366;2023-05-02T15:58:54;2.85;;;1.35;;
43793;SDS011;29414;44.798;20.366;2023-05-02T16:02:57;1.20;;;1.00;;
43793;SDS011;29414;44.798;20.366;2023-05-02T16:06:58;1.55;;;1.25;;
43793;SDS011;29414;44.798;20.366;2023-05-02T16:10:58;1.83;;;1.23;;
43793;SDS011;29414;44.798;20.366;2023-05-02T16:15:00;0.73;;;0.60;;
43793;SDS011;29414;44.798;20.366;2023-05-02T16:19:01;4.35;;;1.40;;
43793;SDS011;29414;44.798;20.366;2023-05-02T16:23:01;2.15;;;1.75;;
43793;SDS011;29414;44.798;20.366;2023-05-02T16:27:02;3.08;;;1.27;;
43793;SDS011;29414;44.798;20.366;2023-05-02T16:31:05;3.38;;;1.50;;
43793;SDS011;29414;44.798;20.366;2023-05-02T16:35:07;3.25;;;1.30;;
43793;SDS011;29414;44.798;20.366;2023-05-02T16:39:09;3.35;;;1.27;;
43793;SDS011;29414;44.798;20.366;2023-05-02T16:43:10;3.78;;;2.15;;
43793;SDS011;29414;44.798;20.366;2023-05-02T16:47:10;9.65;;;1.80;;
43793;SDS011;29414;44.798;20.366;2023-05-02T16:51:10;5.80;;;1.70;;
43793;SDS011;29414;44.798;20.366;2023-05-02T16:55:10;3.83;;;1.35;;
43793;SDS011;29414;44.798;20.366;2023-05-02T16:59:11;6.00;;;1.67;;
43793;SDS011;29414;44.798;20.366;2023-05-02T17:03:11;3.58;;;1.67;;
43793;SDS011;29414;44.798;20.366;2023-05-02T17:07:11;7.40;;;1.65;;
43793;SDS011;29414;44.798;20.366;2023-05-02T17:11:12;5.00;;;1.45;;
43793;SDS011;29414;44.798;20.366;2023-05-02T17:15:12;6.75;;;1.90;;
43793;SDS011;29414;44.798;20.366;2023-05-02T17:19:13;5.32;;;1.20;;
43793;SDS011;29414;44.798;20.366;2023-05-02T17:23:13;3.06;;;1.50;;
43793;SDS011;29414;44.798;20.366;2023-05-02T17:27:13;3.90;;;1.33;;
43793;SDS011;29414;44.798;20.366;2023-05-02T17:31:14;3.72;;;1.42;;
43793;SDS011;29414;44.798;20.366;2023-05-02T17:35:15;3.53;;;1.30;;
43793;SDS011;29414;44.798;20.366;2023-05-02T17:39:16;5.13;;;1.55;;
43793;SDS011;29414;44.798;20.366;2023-05-02T17:43:16;2.75;;;1.42;;
43793;SDS011;29414;44.798;20.366;2023-05-02T17:47:16;3.20;;;1.42;;
43793;SDS011;29414;44.798;20.366;2023-05-02T17:51:18;2.85;;;1.23;;
43793;SDS011;29414;44.798;20.366;2023-05-02T17:55:19;3.30;;;1.55;;
43793;SDS011;29414;44.798;20.366;2023-05-02T17:59:19;3.38;;;1.65;;
43793;SDS011;29414;44.798;20.366;2023-05-02T18:03:21;8.68;;;1.73;;
43793;SDS011;29414;44.798;20.366;2023-05-02T18:07:21;2.65;;;1.50;;
43793;SDS011;29414;44.798;20.366;2023-05-02T18:11:37;7.45;;;1.75;;
43793;SDS011;29414;44.798;20.366;2023-05-02T18:15:37;5.50;;;2.20;;
43793;SDS011;29414;44.798;20.366;2023-05-02T18:19:37;4.68;;;1.40;;
43793;SDS011;29414;44.798;20.366;2023-05-02T18:23:38;12.40;;;1.58;;
43793;SDS011;29414;44.798;20.366;2023-05-02T18:27:39;9.13;;;1.60;;
43793;SDS011;29414;44.798;20.366;2023-05-02T18:31:40;4.32;;;1.55;;
43793;SDS011;29414;44.798;20.366;2023-05-02T18:35:43;2.78;;;1.50;;
43793;SDS011;29414;44.798;20.366;2023-05-02T18:39:45;5.35;;;1.38;;
43793;SDS011;29414;44.798;20.366;2023-05-02T18:43:45;5.50;;;1.76;;
43793;SDS011;29414;44.798;20.366;2023-05-02T18:47:45;5.55;;;2.13;;
43793;SDS011;29414;44.798;20.366;2023-05-02T18:51:48;10.70;;;1.88;;
43793;SDS011;29414;44.798;20.366;2023-05-02T18:55:49;2.53;;;1.67;;
43793;SDS011;29414;44.798;20.366;2023-05-02T18:59:50;4.32;;;1.85;;
43793;SDS011;29414;44.798;20.366;2023-05-02T19:03:51;7.88;;;1.92;;
43793;SDS011;29414;44.798;20.366;2023-05-02T19:07:51;3.20;;;1.80;;
43793;SDS011;29414;44.798;20.366;2023-05-02T19:11:51;4.43;;;2.22;;
43793;SDS011;29414;44.798;20.366;2023-05-02T19:15:53;7.53;;;2.30;;
43793;SDS011;29414;44.798;20.366;2023-05-02T19:19:54;4.28;;;1.67;;
43793;SDS011;29414;44.798;20.366;2023-05-02T19:23:54;2.47;;;1.30;;
43793;SDS011;29414;44.798;20.366;2023-05-02T19:27:55;7.43;;;1.48;;
43793;SDS011;29414;44.798;20.366;2023-05-02T19:31:56;5.30;;;2.00;;
43793;SDS011;29414;44.798;20.366;2023-05-02T19:35:56;6.63;;;2.08;;
43793;SDS011;29414;44.798;20.366;2023-05-02T19:39:57;4.68;;;1.90;;
43793;SDS011;29414;44.798;20.366;2023-05-02T19:43:58;6.70;;;2.17;;
43793;SDS011;29414;44.798;20.366;2023-05-02T19:47:59;5.38;;;2.03;;
43793;SDS011;29414;44.798;20.366;2023-05-02T19:51:59;4.82;;;2.22;;
43793;SDS011;29414;44.798;20.366;2023-05-02T19:56:00;2.50;;;1.90;;
43793;SDS011;29414;44.798;20.366;2023-05-02T20:00:04;6.72;;;2.10;;
43793;SDS011;29414;44.798;20.366;2023-05-02T20:04:05;9.00;;;2.85;;
43793;SDS011;29414;44.798;20.366;2023-05-02T20:08:05;9.15;;;2.47;;
43793;SDS011;29414;44.798;20.366;2023-05-02T20:12:05;6.02;;;2.62;;
43793;SDS011;29414;44.798;20.366;2023-05-02T20:16:06;5.15;;;2.00;;
43793;SDS011;29414;44.798;20.366;2023-05-02T20:20:06;3.58;;;2.08;;
43793;SDS011;29414;44.798;20.366;2023-05-02T20:24:07;4.85;;;1.98;;
43793;SDS011;29414;44.798;20.366;2023-05-02T20:28:07;2.60;;;1.95;;
43793;SDS011;29414;44.798;20.366;2023-05-02T20:32:08;5.13;;;2.03;;
43793;SDS011;29414;44.798;20.366;2023-05-02T20:36:08;8.95;;;1.88;;
43793;SDS011;29414;44.798;20.366;2023-05-02T20:40:08;6.22;;;2.03;;
43793;SDS011;29414;44.798;20.366;2023-05-02T20:44:09;6.88;;;2.20;;
43793;SDS011;29414;44.798;20.366;2023-05-02T20:48:09;5.07;;;2.00;;
43793;SDS011;29414;44.798;20.366;2023-05-02T20:52:09;5.43;;;2.45;;
43793;SDS011;29414;44.798;20.366;2023-05-02T20:56:10;9.02;;;2.25;;
43793;SDS011;29414;44.798;20.366;2023-05-02T21:00:10;5.50;;;2.33;;
43793;SDS011;29414;44.798;20.366;2023-05-02T21:04:12;5.32;;;2.17;;
43793;SDS011;29414;44.798;20.366;2023-05-02T21:08:12;3.70;;;1.67;;
43793;SDS011;29414;44.798;20.366;2023-05-02T21:12:13;2.76;;;1.96;;
43793;SDS011;29414;44.798;20.366;2023-05-02T21:16:16;7.40;;;2.25;;
43793;SDS011;29414;44.798;20.366;2023-05-02T21:20:17;3.67;;;2.00;;
43793;SDS011;29414;44.798;20.366;2023-05-02T21:24:17;5.32;;;1.92;;
43793;SDS011;29414;44.798;20.366;2023-05-02T21:28:17;4.93;;;1.95;;
43793;SDS011;29414;44.798;20.366;2023-05-02T21:32:18;3.30;;;1.52;;
43793;SDS011;29414;44.798;20.366;2023-05-02T21:36:18;5.03;;;1.92;;
43793;SDS011;29414;44.798;20.366;2023-05-02T21:40:19;3.92;;;1.75;;
43793;SDS011;29414;44.798;20.366;2023-05-02T21:44:19;3.05;;;1.60;;
43793;SDS011;29414;44.798;20.366;2023-05-02T21:48:20;5.45;;;1.92;;
43793;SDS011;29414;44.798;20.366;2023-05-02T21:52:20;3.67;;;1.38;;
43793;SDS011;29414;44.798;20.366;2023-05-02T21:56:20;3.53;;;1.25;;
43793;SDS011;29414;44.798;20.366;2023-05-02T22:00:20;6.07;;;1.40;;
43793;SDS011;29414;44.798;20.366;2023-05-02T22:04:21;4.75;;;1.35;;
43793;SDS011;29414;44.798;20.366;2023-05-02T22:08:23;4.40;;;1.60;;
43793;SDS011;29414;44.798;20.366;2023-05-02T22:12:24;3.53;;;1.17;;
43793;SDS011;29414;44.798;20.366;2023-05-02T22:16:25;6.95;;;1.75;;
43793;SDS011;29414;44.798;20.366;2023-05-02T22:20:26;3.98;;;0.98;;
43793;SDS011;29414;44.798;20.366;2023-05-02T22:24:27;4.00;;;1.60;;
43793;SDS011;29414;44.798;20.366;2023-05-02T22:28:27;3.53;;;1.77;;
43793;SDS011;29414;44.798;20.366;2023-05-02T22:32:28;4.85;;;1.67;;
43793;SDS011;29414;44.798;20.366;2023-05-02T22:36:28;3.20;;;1.20;;
43793;SDS011;29414;44.798;20.366;2023-05-02T22:40:28;2.70;;;1.73;;
43793;SDS011;29414;44.798;20.366;2023-05-02T22:44:32;2.63;;;1.65;;
43793;SDS011;29414;44.798;20.366;2023-05-02T22:48:32;2.28;;;1.32;;
43793;SDS011;29414;44.798;20.366;2023-05-02T22:52:32;5.72;;;1.30;;
43793;SDS011;29414;44.798;20.366;2023-05-02T22:56:36;4.90;;;1.20;;
43793;SDS011;29414;44.798;20.366;2023-05-02T23:00:37;4.32;;;1.20;;
43793;SDS011;29414;44.798;20.366;2023-05-02T23:04:37;3.58;;;1.52;;
43793;SDS011;29414;44.798;20.366;2023-05-02T23:08:37;5.75;;;1.38;;
43793;SDS011;29414;44.798;20.366;2023-05-02T23:12:37;4.53;;;1.38;;
43793;SDS011;29414;44.798;20.366;2023-05-02T23:16:38;4.28;;;1.67;;
43793;SDS011;29414;44.798;20.366;2023-05-02T23:20:40;5.63;;;1.45;;
43793;SDS011;29414;44.798;20.366;2023-05-02T23:24:41;7.95;;;1.58;;
43793;SDS011;29414;44.798;20.366;2023-05-02T23:28:41;6.45;;;1.58;;
43793;SDS011;29414;44.798;20.366;2023-05-02T23:32:41;5.78;;;1.67;;
43793;SDS011;29414;44.798;20.366;2023-05-02T23:36:42;3.63;;;1.80;;
43793;SDS011;29414;44.798;20.366;2023-05-02T23:40:42;5.93;;;1.63;;
43793;SDS011;29414;44.798;20.366;2023-05-02T23:44:43;8.77;;;2.03;;
43793;SDS011;29414;44.798;20.366;2023-05-02T23:48:43;3.20;;;2.10;;
43793;SDS011;29414;44.798;20.366;2023-05-02T23:52:43;6.22;;;2.30;;
43793;SDS011;29414;44.798;20.366;2023-05-02T23:56:43;3.15;;;1.45;;
